Time;durP1;ratioP1;P1;durP2;ratioP2;P2;SDS_P1;SDS_P2;PMS_P1;PMS_P2;Temp;Humidity;BMP_temperature;BMP_pressure;BME280_temperature;BME280_humidity;BME280_pressure;Samples;Min_cycle;Max_cycle;Signal;HPM_P1;HPM_P2
2021/12/28 00:00:25;;;;;;;55.30;27.95;;;5.40;99.90;;;;;;5045840;28;20506;-79
2021/12/28 00:02:51;;;;;;;56.83;28.00;;;5.40;99.90;;;;;;5063699;28;20579;-78
2021/12/28 00:05:18;;;;;;;65.03;28.77;;;5.40;99.90;;;;;;5048150;28;20082;-78
2021/12/28 00:07:44;;;;;;;69.07;28.63;;;5.40;99.90;;;;;;5062337;28;21056;-77
2021/12/28 00:10:13;;;;;;;63.05;27.65;;;5.40;99.90;;;;;;5059030;28;20041;-78
2021/12/28 00:12:39;;;;;;;70.68;30.90;;;5.40;99.90;;;;;;5063460;28;20045;-79
2021/12/28 00:15:29;;;;;;;72.28;29.73;;;5.40;99.90;;;;;;5064796;28;20047;-78
2021/12/28 00:18:04;;;;;;;67.72;28.23;;;5.40;99.90;;;;;;5065914;28;20421;-78
2021/12/28 00:20:33;;;;;;;63.40;27.23;;;5.70;99.90;;;;;;5051786;28;20059;-78
2021/12/28 00:23:00;;;;;;;89.53;32.10;;;5.40;99.90;;;;;;5061843;28;20051;-78
2021/12/28 00:25:26;;;;;;;60.90;26.92;;;5.40;99.90;;;;;;5061601;28;20127;-78
2021/12/28 00:27:52;;;;;;;89.32;29.95;;;5.40;99.90;;;;;;5050600;28;20556;-79
2021/12/28 00:30:18;;;;;;;73.85;29.75;;;6.00;99.90;;;;;;5051382;28;20123;-78
2021/12/28 00:32:46;;;;;;;70.57;28.65;;;5.40;99.90;;;;;;5048521;28;20079;-78
2021/12/28 00:35:12;;;;;;;90.18;31.70;;;5.60;99.90;;;;;;5051487;28;20052;-79
2021/12/28 00:37:38;;;;;;;85.93;30.95;;;5.50;99.90;;;;;;5016873;28;20056;-78
2021/12/28 00:40:05;;;;;;;82.45;32.63;;;5.50;99.90;;;;;;5051646;28;20469;-79
2021/12/28 00:42:31;;;;;;;97.65;34.25;;;5.50;99.90;;;;;;5067150;28;20048;-79
2021/12/28 00:44:56;;;;;;;92.60;32.10;;;5.60;99.90;;;;;;5051860;28;20052;-80
2021/12/28 00:47:22;;;;;;;108.55;34.25;;;5.60;99.90;;;;;;5049474;28;20045;-80
2021/12/28 00:49:48;;;;;;;94.10;32.30;;;5.60;99.90;;;;;;5050540;28;20041;-79
2021/12/28 00:52:13;;;;;;;82.90;31.88;;;5.60;99.90;;;;;;5034213;28;20084;-80
2021/12/28 00:54:39;;;;;;;78.88;30.00;;;5.60;99.90;;;;;;5051068;28;20044;-79
2021/12/28 00:57:06;;;;;;;79.35;29.95;;;5.60;99.90;;;;;;5046288;28;20032;-79
2021/12/28 00:59:32;;;;;;;82.95;30.50;;;5.60;99.90;;;;;;5066852;28;20080;-79
2021/12/28 01:01:58;;;;;;;78.97;28.95;;;5.50;99.90;;;;;;5066935;28;20090;-79
2021/12/28 01:04:25;;;;;;;103.63;32.30;;;5.60;99.90;;;;;;5044764;28;20047;-79
2021/12/28 01:06:51;;;;;;;92.57;30.77;;;5.50;99.90;;;;;;5066916;28;20058;-79
2021/12/28 01:09:17;;;;;;;65.10;28.00;;;5.50;99.90;;;;;;5073062;28;20052;-79
2021/12/28 01:11:43;;;;;;;143.65;35.85;;;5.50;99.90;;;;;;5067174;28;20052;-79
2021/12/28 01:14:09;;;;;;;74.00;28.08;;;5.50;99.90;;;;;;5049607;28;20090;-79
2021/12/28 01:16:35;;;;;;;111.25;32.65;;;5.60;99.90;;;;;;5050255;28;20050;-79
2021/12/28 01:19:01;;;;;;;128.77;35.28;;;5.50;99.90;;;;;;5044954;28;20032;-79
2021/12/28 01:21:27;;;;;;;127.97;33.90;;;5.50;99.90;;;;;;5034044;28;20101;-79
2021/12/28 01:23:52;;;;;;;124.20;33.97;;;5.50;99.90;;;;;;5066693;28;20490;-79
2021/12/28 01:26:18;;;;;;;85.80;30.45;;;5.50;99.90;;;;;;5033142;28;20486;-79
2021/12/28 01:28:44;;;;;;;112.78;34.50;;;5.50;99.90;;;;;;5039898;28;20048;-79
2021/12/28 01:31:10;;;;;;;112.55;33.28;;;5.50;99.90;;;;;;5044602;28;20410;-79
2021/12/28 01:33:35;;;;;;;115.68;34.92;;;5.60;99.90;;;;;;5040547;28;20048;-79
2021/12/28 01:36:01;;;;;;;144.60;38.55;;;5.50;99.90;;;;;;5033233;28;20110;-80
2021/12/28 01:38:27;;;;;;;107.38;33.42;;;6.50;99.90;;;;;;5049680;28;20791;-79
2021/12/28 01:40:53;;;;;;;92.68;32.38;;;5.50;99.90;;;;;;5042056;28;20049;-79
2021/12/28 01:43:21;;;;;;;102.90;31.52;;;5.50;99.90;;;;;;5066754;28;20505;-80
2021/12/28 01:45:59;;;;;;;117.80;32.08;;;5.50;99.90;;;;;;5065001;28;20048;-80
2021/12/28 01:48:34;;;;;;;116.63;32.42;;;5.50;99.90;;;;;;5049553;28;20037;-79
2021/12/28 01:51:13;;;;;;;95.93;30.38;;;6.30;99.90;;;;;;5067408;28;20059;-79
2021/12/28 01:53:40;;;;;;;138.80;32.88;;;5.50;99.90;;;;;;5065288;28;20505;-79
2021/12/28 01:56:10;;;;;;;137.15;33.47;;;5.90;99.90;;;;;;5049763;28;20048;-79
2021/12/28 01:58:36;;;;;;;80.38;28.77;;;5.50;99.90;;;;;;5057124;28;20044;-80
2021/12/28 02:01:03;;;;;;;135.60;34.00;;;5.50;99.90;;;;;;5065176;28;20520;-80
2021/12/28 02:03:30;;;;;;;87.85;29.80;;;5.50;99.90;;;;;;5066639;28;20044;-79
2021/12/28 02:05:56;;;;;;;97.68;31.33;;;5.50;99.90;;;;;;5048272;28;20041;-80
2021/12/28 02:08:23;;;;;;;144.02;34.60;;;5.50;99.90;;;;;;5067261;28;20043;-79
2021/12/28 02:10:52;;;;;;;78.20;27.95;;;5.50;99.90;;;;;;5047274;28;20175;-79
2021/12/28 02:13:19;;;;;;;137.63;34.65;;;5.50;99.90;;;;;;5060479;28;20056;-79
2021/12/28 02:15:46;;;;;;;141.35;34.85;;;6.20;99.90;;;;;;5047531;28;20486;-79
2021/12/28 02:18:15;;;;;;;118.95;31.75;;;5.60;99.90;;;;;;5049196;28;20055;-79
2021/12/28 02:20:41;;;;;;;102.68;28.83;;;5.60;99.90;;;;;;5065422;28;20112;-79
2021/12/28 02:23:07;;;;;;;119.35;31.77;;;5.60;99.90;;;;;;5043391;28;20044;-79
2021/12/28 02:25:35;;;;;;;141.23;34.15;;;5.60;99.90;;;;;;5044586;28;20056;-80
2021/12/28 02:28:02;;;;;;;83.15;28.58;;;5.60;99.90;;;;;;5032927;28;20123;-79
2021/12/28 02:30:28;;;;;;;86.85;28.60;;;5.60;99.90;;;;;;5027455;28;20045;-79
2021/12/28 02:32:54;;;;;;;141.57;36.97;;;5.60;99.90;;;;;;5039032;28;20048;-79
2021/12/28 02:35:23;;;;;;;100.88;31.35;;;5.60;99.90;;;;;;5049651;28;20091;-79
2021/12/28 02:37:50;;;;;;;122.38;33.97;;;5.70;99.90;;;;;;5057385;28;20055;-79
2021/12/28 02:40:19;;;;;;;114.00;33.05;;;5.70;99.90;;;;;;5043035;28;20040;-80
2021/12/28 02:42:46;;;;;;;140.73;35.45;;;5.70;99.90;;;;;;5048581;28;20049;-79
2021/12/28 02:45:21;;;;;;;149.05;35.65;;;5.70;99.90;;;;;;5065701;28;20045;-79
2021/12/28 02:47:47;;;;;;;;;;;5.80;99.90;;;;;;5065286;28;20515;-79
2021/12/28 02:50:19;;;;;;;176.97;40.67;;;5.80;99.90;;;;;;5048933;28;19924;-79
2021/12/28 02:52:45;;;;;;;94.25;31.35;;;5.90;99.90;;;;;;5064718;28;20045;-79
2021/12/28 02:55:14;;;;;;;108.57;31.75;;;5.90;99.90;;;;;;5059893;28;20068;-79
2021/12/28 02:57:51;;;;;;;121.28;32.60;;;6.00;99.90;;;;;;5048085;28;20048;-79
2021/12/28 03:00:32;;;;;;;134.27;34.50;;;6.00;99.90;;;;;;5065383;28;20549;-79
2021/12/28 03:02:59;;;;;;;126.85;34.03;;;6.00;99.90;;;;;;5058624;28;20040;-79
2021/12/28 03:05:25;;;;;;;115.63;33.83;;;6.00;99.90;;;;;;5043057;28;20052;-80
2021/12/28 03:07:51;;;;;;;96.15;30.48;;;6.00;99.90;;;;;;5064147;28;20048;-80
2021/12/28 03:10:17;;;;;;;91.43;28.80;;;6.00;99.90;;;;;;5065852;28;20497;-80
2021/12/28 03:12:42;;;;;;;100.20;30.63;;;6.00;99.90;;;;;;5064792;28;20383;-80
2021/12/28 03:15:08;;;;;;;101.82;30.95;;;6.10;99.90;;;;;;5048591;28;20044;-80
2021/12/28 03:17:34;;;;;;;92.45;29.73;;;6.10;99.90;;;;;;5043521;28;20047;-79
2021/12/28 03:20:00;;;;;;;110.35;32.00;;;6.10;99.90;;;;;;5048844;28;20048;-80
2021/12/28 03:22:26;;;;;;;99.60;29.83;;;6.10;99.90;;;;;;5048200;28;20036;-80
2021/12/28 03:24:51;;;;;;;94.43;29.42;;;6.10;99.90;;;;;;5031600;28;20071;-79
2021/12/28 03:27:18;;;;;;;84.30;28.00;;;6.40;99.90;;;;;;5047929;28;20079;-80
2021/12/28 03:29:43;;;;;;;100.35;27.75;;;6.10;99.90;;;;;;5065286;28;20466;-80
2021/12/28 03:32:09;;;;;;;90.25;29.40;;;6.10;99.90;;;;;;5047178;28;20147;-80
2021/12/28 03:34:35;;;;;;;90.72;28.88;;;6.20;99.90;;;;;;5039818;28;20040;-79
2021/12/28 03:37:00;;;;;;;100.10;29.77;;;6.20;99.90;;;;;;5041034;28;20544;-79
2021/12/28 03:39:26;;;;;;;90.03;29.70;;;6.20;99.90;;;;;;5015215;28;20051;-79
2021/12/28 03:41:52;;;;;;;101.38;31.77;;;6.20;99.90;;;;;;5031012;28;20097;-80
2021/12/28 03:44:17;;;;;;;90.75;30.58;;;6.20;99.90;;;;;;5058096;28;20102;-79
2021/12/28 03:46:43;;;;;;;82.68;29.35;;;6.20;99.90;;;;;;5046103;28;20063;-80
2021/12/28 03:49:09;;;;;;;86.97;29.40;;;6.20;99.90;;;;;;5026287;28;20048;-79
2021/12/28 03:51:35;;;;;;;87.40;29.88;;;6.60;99.90;;;;;;5031941;28;20040;-80
2021/12/28 03:54:00;;;;;;;84.35;29.30;;;6.20;99.90;;;;;;5051000;28;20044;-80
2021/12/28 03:56:26;;;;;;;93.75;29.42;;;6.20;99.90;;;;;;5051228;28;20036;-79
2021/12/28 03:58:53;;;;;;;79.88;27.90;;;6.40;99.90;;;;;;5049220;28;20965;-80
2021/12/28 04:01:23;;;;;;;85.60;29.17;;;6.20;99.90;;;;;;5035279;28;20048;-80
2021/12/28 04:03:49;;;;;;;88.63;30.27;;;6.20;99.90;;;;;;5062608;28;20432;-80
2021/12/28 04:06:18;;;;;;;101.10;32.22;;;6.20;99.90;;;;;;5018300;28;20040;-80
2021/12/28 04:08:44;;;;;;;103.25;30.40;;;6.20;99.90;;;;;;5061948;28;20094;-80
2021/12/28 04:11:15;;;;;;;92.05;30.08;;;6.30;99.90;;;;;;5073792;28;20036;-79
2021/12/28 04:13:44;;;;;;;87.88;28.50;;;6.20;99.90;;;;;;5048247;28;20040;-79
2021/12/28 04:16:10;;;;;;;87.90;28.45;;;6.40;99.90;;;;;;5067520;28;20055;-79
2021/12/28 04:18:36;;;;;;;89.85;29.02;;;6.20;99.90;;;;;;5048498;28;20045;-79
2021/12/28 04:21:02;;;;;;;88.13;28.42;;;6.20;99.90;;;;;;5067587;28;20056;-79
2021/12/28 04:23:27;;;;;;;91.55;29.30;;;6.20;99.90;;;;;;5068295;28;20044;-80
2021/12/28 04:25:53;;;;;;;82.10;27.10;;;6.10;99.90;;;;;;5033982;28;20049;-79
2021/12/28 04:28:19;;;;;;;106.63;31.48;;;6.10;99.90;;;;;;5068288;28;20045;-78
2021/12/28 04:30:44;;;;;;;84.40;27.67;;;6.10;99.90;;;;;;5067268;28;20048;-78
2021/12/28 04:33:10;;;;;;;110.75;29.35;;;6.10;99.90;;;;;;5041793;28;20052;-78
2021/12/28 04:35:36;;;;;;;73.03;25.63;;;6.10;99.90;;;;;;5050290;28;20068;-82
2021/12/28 04:38:02;;;;;;;89.90;28.58;;;6.10;99.90;;;;;;5034392;28;20195;-81
2021/12/28 04:40:29;;;;;;;87.22;27.63;;;6.10;99.90;;;;;;5063323;28;20048;-81
2021/12/28 04:42:55;;;;;;;80.60;27.27;;;6.20;99.90;;;;;;5044810;28;20522;-81
2021/12/28 04:45:21;;;;;;;109.05;30.23;;;6.00;99.90;;;;;;5034773;28;20052;-78
2021/12/28 04:47:46;;;;;;;82.25;26.23;;;6.10;99.90;;;;;;5050719;28;20379;-78
2021/12/28 04:50:13;;;;;;;80.25;27.52;;;6.10;99.90;;;;;;5050853;28;20044;-78
2021/12/28 04:52:40;;;;;;;77.95;27.25;;;6.10;99.90;;;;;;5068058;28;20055;-78
2021/12/28 04:55:11;;;;;;;85.53;26.13;;;6.30;99.90;;;;;;5049530;28;20048;-78
2021/12/28 04:57:38;;;;;;;77.72;25.25;;;6.40;99.90;;;;;;5067723;28;20482;-78
2021/12/28 05:00:07;;;;;;;73.15;26.80;;;6.20;99.90;;;;;;5067942;28;20041;-78
2021/12/28 05:02:33;;;;;;;69.97;26.20;;;6.10;99.90;;;;;;5070688;28;20101;-78
2021/12/28 05:04:58;;;;;;;76.82;26.27;;;6.50;99.90;;;;;;5054052;28;20047;-78
2021/12/28 05:07:24;;;;;;;75.20;26.38;;;6.10;99.90;;;;;;5037221;28;20089;-79
2021/12/28 05:09:50;;;;;;;67.70;25.45;;;6.10;99.90;;;;;;5070791;28;20051;-78
2021/12/28 05:12:16;;;;;;;72.25;25.95;;;6.10;99.90;;;;;;5053286;28;20051;-78
2021/12/28 05:14:42;;;;;;;71.10;25.92;;;6.10;99.90;;;;;;5053593;28;20052;-78
2021/12/28 05:17:09;;;;;;;67.30;25.02;;;6.10;99.90;;;;;;5068113;28;20118;-78
2021/12/28 05:19:35;;;;;;;65.72;23.95;;;6.10;99.90;;;;;;5070619;28;20040;-78
2021/12/28 05:22:01;;;;;;;70.80;25.67;;;6.10;99.90;;;;;;5069556;28;20044;-78
2021/12/28 05:24:27;;;;;;;69.47;25.65;;;6.10;99.90;;;;;;5070881;28;20050;-78
2021/12/28 05:26:52;;;;;;;66.38;24.67;;;6.10;99.90;;;;;;5053003;28;20120;-78
2021/12/28 05:29:19;;;;;;;68.40;26.30;;;6.10;99.90;;;;;;5035171;28;20040;-78
2021/12/28 05:31:45;;;;;;;66.82;26.05;;;6.10;99.90;;;;;;5037125;28;20048;-81
2021/12/28 05:34:10;;;;;;;65.13;24.85;;;6.80;99.90;;;;;;5036164;28;20062;-80
2021/12/28 05:36:36;;;;;;;70.38;25.23;;;6.20;99.90;;;;;;5053230;28;20044;-81
2021/12/28 05:39:04;;;;;;;65.70;24.95;;;6.20;99.90;;;;;;5036407;28;20059;-81
2021/12/28 05:41:30;;;;;;;69.07;26.08;;;6.20;99.90;;;;;;5070173;28;20036;-81
2021/12/28 05:43:55;;;;;;;62.00;24.90;;;6.20;99.90;;;;;;5036098;28;20047;-81
2021/12/28 05:46:21;;;;;;;68.00;24.88;;;6.70;99.90;;;;;;5052950;28;20036;-79
2021/12/28 05:48:47;;;;;;;57.05;23.85;;;6.20;99.90;;;;;;5037087;28;21841;-78
2021/12/28 05:51:15;;;;;;;58.20;23.02;;;6.20;99.90;;;;;;5068972;28;20051;-78
2021/12/28 05:53:40;;;;;;;65.30;22.60;;;6.20;99.90;;;;;;5065398;28;20063;-78
2021/12/28 05:56:07;;;;;;;59.85;23.88;;;6.20;99.90;;;;;;5068030;28;20040;-79
2021/12/28 05:58:33;;;;;;;62.90;23.10;;;6.20;99.90;;;;;;5052512;28;20075;-79
2021/12/28 06:00:59;;;;;;;53.70;21.95;;;6.20;99.90;;;;;;5047861;28;20135;-78
2021/12/28 06:03:25;;;;;;;59.25;22.58;;;6.20;99.90;;;;;;5043284;28;20143;-82
2021/12/28 06:05:50;;;;;;;48.85;21.15;;;6.20;99.90;;;;;;5065289;28;20056;-79
2021/12/28 06:08:16;;;;;;;60.28;22.30;;;6.20;99.90;;;;;;5048616;28;20059;-79
2021/12/28 06:10:42;;;;;;;51.42;20.27;;;6.20;99.90;;;;;;5049023;28;20271;-79
2021/12/28 06:13:08;;;;;;;46.58;20.38;;;6.20;99.90;;;;;;5048671;28;20048;-79
2021/12/28 06:15:33;;;;;;;50.08;20.15;;;6.20;99.90;;;;;;5048563;28;20044;-78
2021/12/28 06:17:59;;;;;;;45.38;18.85;;;6.30;99.90;;;;;;5065089;28;20090;-81
2021/12/28 06:20:25;;;;;;;46.55;19.23;;;6.20;99.90;;;;;;5028846;28;20750;-81
2021/12/28 06:22:50;;;;;;;43.90;20.38;;;6.20;99.90;;;;;;5032834;28;20045;-81
2021/12/28 06:25:16;;;;;;;46.13;19.40;;;6.30;99.90;;;;;;5040228;28;20135;-79
2021/12/28 06:27:42;;;;;;;44.35;18.42;;;6.20;99.90;;;;;;5048854;28;20106;-79
2021/12/28 06:30:08;;;;;;;46.35;20.00;;;6.10;99.90;;;;;;5065137;28;20040;-79
2021/12/28 06:32:34;;;;;;;43.20;18.20;;;6.10;99.90;;;;;;5065713;28;20041;-79
2021/12/28 06:35:00;;;;;;;38.65;17.95;;;7.30;99.90;;;;;;5031941;28;20041;-79
2021/12/28 06:37:26;;;;;;;42.70;16.33;;;6.10;99.90;;;;;;5047729;28;20032;-79
2021/12/28 06:39:52;;;;;;;38.67;16.92;;;6.10;99.90;;;;;;5048446;28;20043;-80
2021/12/28 06:42:17;;;;;;;39.53;16.73;;;6.10;99.90;;;;;;5044620;28;20750;-80
2021/12/28 06:44:45;;;;;;;43.63;18.33;;;6.10;99.90;;;;;;5066318;28;20444;-80
2021/12/28 06:47:11;;;;;;;43.97;17.77;;;6.10;99.90;;;;;;5032496;28;20059;-80
2021/12/28 06:49:37;;;;;;;46.15;17.55;;;6.10;99.90;;;;;;5048876;28;20482;-80
2021/12/28 06:52:03;;;;;;;39.15;17.52;;;6.10;99.90;;;;;;5047993;28;20051;-80
2021/12/28 06:54:29;;;;;;;41.67;18.15;;;6.10;99.90;;;;;;5065696;28;20509;-80
2021/12/28 06:56:54;;;;;;;41.97;16.65;;;6.10;99.90;;;;;;5031406;28;20049;-79
2021/12/28 06:59:20;;;;;;;40.47;17.20;;;6.80;99.90;;;;;;5065164;28;20044;-79
2021/12/28 07:01:46;;;;;;;44.35;17.42;;;6.10;99.90;;;;;;5045085;28;20139;-78
2021/12/28 07:04:12;;;;;;;35.63;16.08;;;6.10;99.90;;;;;;5025027;28;20079;-78
2021/12/28 07:06:37;;;;;;;38.03;16.52;;;6.10;99.90;;;;;;5065599;28;20123;-79
2021/12/28 07:09:03;;;;;;;45.88;16.88;;;6.20;99.90;;;;;;5031001;28;20076;-79
2021/12/28 07:11:29;;;;;;;42.75;16.55;;;6.10;99.90;;;;;;5031416;28;20041;-79
2021/12/28 07:13:55;;;;;;;37.80;16.05;;;6.10;99.90;;;;;;5064019;28;20072;-78
2021/12/28 07:16:20;;;;;;;36.95;16.48;;;6.10;99.90;;;;;;5064742;28;20058;-78
2021/12/28 07:18:46;;;;;;;37.72;15.20;;;6.10;99.90;;;;;;5047451;28;20048;-78
2021/12/28 07:21:12;;;;;;;37.95;16.33;;;6.10;99.90;;;;;;5037364;28;20726;-80
2021/12/28 07:23:37;;;;;;;39.17;14.80;;;6.10;99.90;;;;;;5027597;28;20114;-80
2021/12/28 07:26:03;;;;;;;39.22;16.42;;;6.10;99.90;;;;;;5047377;28;20135;-79
2021/12/28 07:28:29;;;;;;;40.00;15.70;;;6.10;99.90;;;;;;5033615;28;20055;-78
2021/12/28 07:30:55;;;;;;;42.50;15.63;;;6.10;99.90;;;;;;5058709;28;20478;-78
2021/12/28 07:33:21;;;;;;;35.60;15.05;;;6.10;99.90;;;;;;5017150;28;20098;-79
2021/12/28 07:35:47;;;;;;;38.63;16.27;;;6.10;99.90;;;;;;5033662;28;20048;-79
2021/12/28 07:38:13;;;;;;;33.08;16.50;;;6.10;99.90;;;;;;5042253;28;20044;-78
2021/12/28 07:40:39;;;;;;;39.50;16.13;;;6.10;99.90;;;;;;5032874;28;20043;-78
2021/12/28 07:43:05;;;;;;;40.60;16.63;;;6.10;99.90;;;;;;5027327;28;20094;-79
2021/12/28 07:45:31;;;;;;;45.17;16.08;;;6.10;99.90;;;;;;5049171;28;20049;-82
2021/12/28 07:47:56;;;;;;;34.88;14.90;;;6.10;99.90;;;;;;5042006;28;20056;-82
2021/12/28 07:50:22;;;;;;;31.58;14.27;;;6.10;99.90;;;;;;5016066;28;20048;-81
2021/12/28 07:52:49;;;;;;;32.38;15.50;;;6.10;99.90;;;;;;5058398;28;20135;-82
2021/12/28 07:55:16;;;;;;;39.45;15.20;;;6.20;99.90;;;;;;5032585;28;20549;-83
2021/12/28 07:57:42;;;;;;;39.20;16.50;;;6.20;99.90;;;;;;5049847;28;20040;-83
2021/12/28 08:00:15;;;;;;;43.72;17.30;;;6.20;99.90;;;;;;5051769;28;20064;-84
2021/12/28 08:02:43;;;;;;;40.97;15.13;;;6.20;99.90;;;;;;5052056;28;20105;-83
2021/12/28 08:05:10;;;;;;;37.40;15.50;;;6.20;99.90;;;;;;5052638;28;20477;-84
2021/12/28 08:07:35;;;;;;;39.00;15.50;;;6.10;99.90;;;;;;5068903;28;20105;-84
2021/12/28 08:10:01;;;;;;;37.03;14.93;;;6.10;99.90;;;;;;5045395;28;20435;-83
2021/12/28 08:12:27;;;;;;;39.25;16.50;;;6.10;99.90;;;;;;5053107;28;20060;-84
2021/12/28 08:14:53;;;;;;;33.30;15.93;;;6.20;99.90;;;;;;5037489;28;20047;-83
2021/12/28 08:17:19;;;;;;;37.05;15.80;;;6.20;99.90;;;;;;5068721;28;20404;-83
2021/12/28 08:19:44;;;;;;;42.03;15.30;;;6.10;99.90;;;;;;5052430;28;20044;-84
2021/12/28 08:22:10;;;;;;;29.67;14.23;;;6.10;99.90;;;;;;5035419;28;20546;-82
2021/12/28 08:24:36;;;;;;;39.90;16.05;;;6.20;99.90;;;;;;5036036;28;20130;-83
2021/12/28 08:27:02;;;;;;;37.42;15.85;;;6.20;99.90;;;;;;5052573;28;20040;-84
2021/12/28 08:29:28;;;;;;;39.50;14.70;;;6.20;99.90;;;;;;5035982;28;20113;-83
2021/12/28 08:31:53;;;;;;;39.58;15.15;;;6.20;99.90;;;;;;5036812;28;20052;-83
2021/12/28 08:34:19;;;;;;;30.52;14.43;;;6.20;99.90;;;;;;5035410;28;20048;-83
2021/12/28 08:36:45;;;;;;;42.45;14.95;;;6.20;99.90;;;;;;5051567;28;20075;-84
2021/12/28 08:39:11;;;;;;;34.50;17.15;;;6.20;99.90;;;;;;5038025;28;20048;-84
2021/12/28 08:41:36;;;;;;;31.33;16.13;;;6.20;99.90;;;;;;5063869;28;20052;-83
2021/12/28 08:44:02;;;;;;;30.83;14.45;;;6.20;99.90;;;;;;5056679;28;20056;-83
2021/12/28 08:46:31;;;;;;;34.20;14.77;;;6.20;99.90;;;;;;5072271;28;20040;-84
2021/12/28 08:48:56;;;;;;;37.47;15.48;;;6.30;99.90;;;;;;5041293;28;20047;-85
2021/12/28 08:51:22;;;;;;;38.72;15.45;;;6.30;99.90;;;;;;5055292;28;20048;-83
2021/12/28 08:53:48;;;;;;;34.85;14.90;;;6.30;99.90;;;;;;5032928;28;20075;-84
2021/12/28 08:56:14;;;;;;;32.38;14.63;;;6.40;99.90;;;;;;5035606;28;20083;-85
2021/12/28 08:58:40;;;;;;;32.42;15.85;;;6.40;99.90;;;;;;5039855;28;20051;-84
2021/12/28 09:01:06;;;;;;;35.42;15.52;;;7.00;99.90;;;;;;5038339;28;20052;-84
2021/12/28 09:03:32;;;;;;;29.60;14.07;;;6.40;99.90;;;;;;5072812;28;20071;-84
2021/12/28 09:06:00;;;;;;;31.42;14.05;;;6.40;99.90;;;;;;5072478;28;20044;-85
2021/12/28 09:08:26;;;;;;;29.88;14.50;;;6.40;99.90;;;;;;5072258;28;20078;-84
2021/12/28 09:10:52;;;;;;;33.97;15.45;;;6.40;99.90;;;;;;5047505;28;20386;-84
2021/12/28 09:13:18;;;;;;;27.05;12.88;;;6.40;99.90;;;;;;5055140;28;20048;-84
2021/12/28 09:15:45;;;;;;;28.85;13.40;;;6.40;99.90;;;;;;5055311;28;20076;-84
2021/12/28 09:18:11;;;;;;;33.55;14.73;;;6.40;99.90;;;;;;5061731;28;20044;-84
2021/12/28 09:20:37;;;;;;;29.23;13.75;;;6.40;99.90;;;;;;5055955;28;20044;-84
2021/12/28 09:23:04;;;;;;;34.10;15.55;;;6.40;99.90;;;;;;5047592;28;20055;-84
2021/12/28 09:25:30;;;;;;;30.48;14.50;;;6.40;99.90;;;;;;5054844;28;20048;-84
2021/12/28 09:27:56;;;;;;;29.70;13.98;;;6.40;99.90;;;;;;5072803;28;20043;-83
2021/12/28 09:30:22;;;;;;;29.17;13.98;;;6.50;99.90;;;;;;5038793;28;20048;-82
2021/12/28 09:32:48;;;;;;;29.40;13.60;;;6.50;99.90;;;;;;5055494;28;20044;-83
2021/12/28 09:35:14;;;;;;;33.13;13.80;;;6.50;99.90;;;;;;5054201;28;20139;-85
2021/12/28 09:37:40;;;;;;;33.70;14.15;;;6.60;99.90;;;;;;5038528;28;20123;-84
2021/12/28 09:40:09;;;;;;;32.92;14.90;;;6.60;99.90;;;;;;5072053;28;20044;-84
2021/12/28 09:42:35;;;;;;;30.15;14.70;;;6.60;99.90;;;;;;5071800;28;20121;-84
2021/12/28 09:45:03;;;;;;;32.85;14.32;;;5.90;99.90;;;;;;5048515;28;20047;-83
2021/12/28 09:47:29;;;;;;;33.38;14.38;;;6.70;99.90;;;;;;5054560;28;20040;-84
2021/12/28 09:49:54;;;;;;;33.00;14.73;;;6.70;99.90;;;;;;5062842;28;20062;-84
2021/12/28 09:52:20;;;;;;;32.60;15.63;;;6.70;99.90;;;;;;5052990;28;20036;-84
2021/12/28 09:54:46;;;;;;;27.67;14.55;;;6.80;99.90;;;;;;5020513;28;20067;-84
2021/12/28 09:57:17;;;;;;;33.33;14.88;;;6.80;99.90;;;;;;5045394;28;20036;-84
2021/12/28 09:59:43;;;;;;;36.63;16.58;;;6.80;99.90;;;;;;5046124;28;20086;-84
2021/12/28 10:02:12;;;;;;;32.38;15.10;;;6.90;99.90;;;;;;5053843;28;20044;-85
2021/12/28 10:04:59;;;;;;;33.90;15.77;;;6.90;99.90;;;;;;5039025;28;20137;-84
2021/12/28 10:07:31;;;;;;;38.47;15.98;;;6.90;99.90;;;;;;5088321;28;20127;-85
2021/12/28 10:09:57;;;;;;;33.58;15.05;;;6.90;99.90;;;;;;5053539;28;20126;-81
2021/12/28 10:12:29;;;;;;;36.63;15.95;;;7.00;99.90;;;;;;5046712;28;20047;-83
2021/12/28 10:15:00;;;;;;;33.40;17.40;;;6.60;99.90;;;;;;5071748;28;20062;-83
2021/12/28 10:17:28;;;;;;;38.25;16.65;;;7.00;99.90;;;;;;5069811;28;20135;-82
2021/12/28 10:19:54;;;;;;;35.63;17.23;;;7.00;99.90;;;;;;5054873;28;20108;-83
2021/12/28 10:22:37;;;;;;;39.25;17.17;;;7.00;99.90;;;;;;5070233;28;20044;-80
2021/12/28 10:25:16;;;;;;;32.92;16.23;;;7.60;99.90;;;;;;5054257;28;20132;-80
2021/12/28 10:27:47;;;;;;;33.30;16.20;;;6.80;99.90;;;;;;5046728;28;20043;-80
2021/12/28 10:30:21;;;;;;;37.22;15.27;;;7.10;99.90;;;;;;5061367;28;20043;-80
2021/12/28 10:32:51;;;;;;;29.15;14.38;;;7.10;99.90;;;;;;5063372;28;20059;-80
2021/12/28 10:35:20;;;;;;;27.05;13.90;;;7.10;99.90;;;;;;5052057;28;20443;-81
2021/12/28 10:37:57;;;;;;;27.73;14.77;;;7.10;99.90;;;;;;5068715;28;20044;-80
2021/12/28 10:40:52;;;;;;;31.90;14.40;;;7.20;99.90;;;;;;5067133;28;20043;-81
2021/12/28 10:43:24;;;;;;;28.77;14.15;;;7.20;99.90;;;;;;5057775;28;20052;-79
2021/12/28 10:45:54;;;;;;;30.15;14.85;;;7.20;99.90;;;;;;5051976;28;20048;-80
2021/12/28 10:48:26;;;;;;;29.10;13.77;;;7.30;99.90;;;;;;5067706;28;20862;-80
2021/12/28 10:51:21;;;;;;;25.17;13.52;;;7.20;99.90;;;;;;5069246;28;20055;-80
2021/12/28 10:56:28;;;;;;;23.42;12.90;;;7.30;99.90;;;;;;5067693;28;20058;-80
2021/12/28 10:58:54;;;;;;;22.95;12.93;;;7.40;99.90;;;;;;5068364;28;20040;-80
2021/12/28 11:01:31;;;;;;;24.25;12.73;;;7.30;99.90;;;;;;5034168;28;20070;-80
2021/12/28 11:04:09;;;;;;;21.85;11.98;;;7.40;99.90;;;;;;5067781;28;20048;-81
2021/12/28 11:06:40;;;;;;;19.00;12.32;;;7.40;99.90;;;;;;5067753;28;20036;-81
2021/12/28 11:09:10;;;;;;;19.10;12.00;;;7.70;99.90;;;;;;5052294;28;20083;-80
2021/12/28 11:11:39;;;;;;;17.38;10.65;;;7.50;99.90;;;;;;5068396;28;20488;-81
2021/12/28 11:14:07;;;;;;;18.92;11.07;;;7.50;99.90;;;;;;5066380;28;20075;-81
2021/12/28 11:16:34;;;;;;;17.50;10.63;;;7.60;99.90;;;;;;5051059;28;20048;-80
2021/12/28 11:19:06;;;;;;;16.88;10.52;;;7.50;99.90;;;;;;5048052;28;20044;-81
2021/12/28 11:21:36;;;;;;;14.68;10.02;;;7.50;99.90;;;;;;5067963;28;20123;-82
2021/12/28 11:24:13;;;;;;;16.85;10.10;;;7.50;99.90;;;;;;5067528;28;20044;-82
2021/12/28 11:26:51;;;;;;;14.55;9.52;;;7.60;99.90;;;;;;5066794;28;20063;-82
2021/12/28 11:29:20;;;;;;;16.33;9.38;;;7.60;99.90;;;;;;5067072;28;20080;-82
2021/12/28 11:31:51;;;;;;;14.15;8.90;;;7.60;99.90;;;;;;5046263;28;20502;-84
2021/12/28 11:34:24;;;;;;;14.88;8.77;;;7.60;99.90;;;;;;5066971;28;20123;-83
2021/12/28 11:37:08;;;;;;;15.52;8.88;;;7.60;99.90;;;;;;5066901;28;20140;-82
2021/12/28 11:39:47;;;;;;;15.05;9.27;;;7.60;99.90;;;;;;5066884;28;20134;-81
2021/12/28 11:42:15;;;;;;;16.15;8.80;;;7.60;99.90;;;;;;5069024;28;20062;-81
2021/12/28 11:44:42;;;;;;;15.50;9.23;;;7.60;99.90;;;;;;5051873;28;20067;-81
2021/12/28 11:47:10;;;;;;;14.40;8.40;;;7.70;99.90;;;;;;5045970;28;20048;-83
2021/12/28 11:49:41;;;;;;;13.60;9.25;;;7.70;99.90;;;;;;5069319;28;20079;-81
2021/12/28 11:52:10;;;;;;;12.65;7.90;;;7.70;99.90;;;;;;5069893;28;20052;-83
2021/12/28 11:54:40;;;;;;;15.57;8.82;;;7.80;99.90;;;;;;5044413;28;20052;-83
2021/12/28 11:57:09;;;;;;;11.75;8.55;;;7.70;99.90;;;;;;5045960;28;20044;-83
2021/12/28 11:59:35;;;;;;;14.98;9.23;;;7.80;99.90;;;;;;5043708;28;20113;-83
2021/12/28 12:02:02;;;;;;;13.70;9.10;;;7.80;99.90;;;;;;5048836;28;20082;-83
2021/12/28 12:04:31;;;;;;;15.52;9.95;;;7.80;99.90;;;;;;5065870;28;20052;-83
2021/12/28 12:07:01;;;;;;;15.57;9.25;;;7.70;99.90;;;;;;5049273;28;20059;-81
2021/12/28 12:09:28;;;;;;;14.95;9.70;;;7.80;99.90;;;;;;5049746;28;20126;-80
2021/12/28 12:12:15;;;;;;;16.15;9.45;;;7.80;99.90;;;;;;5048677;28;20040;-81
2021/12/28 12:14:51;;;;;;;16.45;9.23;;;7.90;99.90;;;;;;5028762;28;20045;-81
2021/12/28 12:17:34;;;;;;;12.10;7.60;;;7.90;99.90;;;;;;5070232;28;20040;-82
2021/12/28 12:20:18;;;;;;;14.77;8.93;;;7.90;99.90;;;;;;5044329;28;20493;-78
2021/12/28 12:22:47;;;;;;;14.18;8.60;;;7.90;99.90;;;;;;5065666;28;20490;-81
2021/12/28 12:25:21;;;;;;;15.15;8.95;;;7.90;99.90;;;;;;5050376;28;20044;-79
2021/12/28 12:27:54;;;;;;;13.85;8.32;;;7.90;99.90;;;;;;5068271;28;20072;-79
2021/12/28 12:30:27;;;;;;;13.63;7.75;;;8.00;99.90;;;;;;5052014;28;20401;-79
2021/12/28 12:33:00;;;;;;;16.27;8.88;;;8.00;99.90;;;;;;5052453;28;20099;-79
2021/12/28 12:35:53;;;;;;;15.48;8.82;;;8.00;99.90;;;;;;5044913;28;20064;-79
2021/12/28 12:38:24;;;;;;;13.10;8.57;;;8.00;99.90;;;;;;5052633;28;20454;-79
2021/12/28 12:41:08;;;;;;;14.10;8.93;;;8.00;99.90;;;;;;5052302;28;20353;-79